Terminal Aerodrome Forecast
Issued by NWS

Home | Current Version | Previous Version | Text Only | Print | Product List | Glossary On
Versions: 1 2 3 4 5 6 7 8 9 10 11 12
000
FTUS42 TJSJ 020528
TAFKPK
TAF
TKPK 020528Z 0206/0306 03012KT P6SM SCT018
     FM021300 08010KT P6SM SCT020
     FM021800 07015G20KT P6SM VCSH SCT020 SCT030
      AMD NOT SKED TIL 021100=

USA.gov is the U.S. government's official web portal to all federal, state and local government web resources and services.